Terminal Aerodrome Forecast
Issued by NWS

Home | Current Version | Previous Version | Text Only | Print | Product List | Glossary On
Versions: 1 2 3 4 5 6 7 8 9 10 11 12 13 14 15 16
000
FTUS45 KPSR 250500
TAFBLH
TAF
KBLH 250526Z 2506/2606 VRB06KT P6SM FEW250
      TEMPO 2508/2512 17008KT
     FM251200 27010G20KT P6SM SCT050
     FM251600 34015G25KT P6SM SKC=

USA.gov is the U.S. government's official web portal to all federal, state and local government web resources and services.